createdAt,value
2019-02-12T00:03:40.756Z,8.70
2019-02-12T00:06:08.039Z,8.70
2019-02-12T00:08:35.387Z,8.70
2019-02-12T00:15:57.655Z,8.70
2019-02-12T00:18:25.394Z,8.70
2019-02-12T00:20:52.754Z,8.70
2019-02-12T00:25:47.468Z,8.60
2019-02-12T00:30:42.035Z,8.60
2019-02-12T00:38:03.835Z,8.60
2019-02-12T00:40:31.235Z,8.60
2019-02-12T00:45:25.732Z,8.60
2019-02-12T00:50:20.409Z,8.60
2019-02-12T00:52:47.775Z,8.60
2019-02-12T00:57:42.357Z,8.70
2019-02-12T01:02:37.641Z,8.70
2019-02-12T01:05:05.781Z,8.70
2019-02-12T01:07:33.178Z,8.70
2019-02-12T01:10:00.579Z,8.70
2019-02-12T01:12:27.842Z,8.70
2019-02-12T01:14:55.208Z,8.70
2019-02-12T01:17:22.438Z,8.70
2019-02-12T01:19:49.753Z,8.70
2019-02-12T01:22:17.053Z,8.60
2019-02-12T01:24:44.328Z,8.60
2019-02-12T01:29:39.064Z,8.60
2019-02-12T01:32:06.459Z,8.60
2019-02-12T01:34:33.751Z,8.60
2019-02-12T01:37:01.121Z,8.60
2019-02-12T01:39:28.479Z,8.60
2019-02-12T01:41:55.825Z,8.60
2019-02-12T01:44:23.181Z,8.60
2019-02-12T01:46:50.485Z,8.60
2019-02-12T01:49:17.772Z,8.70
2019-02-12T01:54:12.615Z,8.70
2019-02-12T01:56:39.946Z,8.70
2019-02-12T01:59:07.358Z,8.70
2019-02-12T02:01:34.727Z,8.70
2019-02-12T02:04:02.183Z,8.80
2019-02-12T02:06:29.465Z,8.80
2019-02-12T02:08:56.779Z,8.80
2019-02-12T02:11:24.044Z,8.90
2019-02-12T02:13:51.334Z,8.80
2019-02-12T02:16:18.701Z,8.90
2019-02-12T02:18:46.141Z,8.90
2019-02-12T02:21:13.520Z,8.90
2019-02-12T02:23:40.854Z,8.90
2019-02-12T02:28:35.602Z,8.90
2019-02-12T02:31:02.914Z,8.90
2019-02-12T02:33:30.170Z,8.90
2019-02-12T02:35:57.444Z,9.00
2019-02-12T02:38:24.700Z,8.90
2019-02-12T02:40:51.974Z,8.90
2019-02-12T02:43:19.336Z,8.90
2019-02-12T02:45:46.629Z,8.90
2019-02-12T02:48:14.018Z,8.90
2019-02-12T02:55:35.874Z,8.90
2019-02-12T02:58:03.200Z,8.90
2019-02-12T03:02:57.819Z,8.90
2019-02-12T03:05:25.095Z,8.90
2019-02-12T03:07:52.418Z,8.90
2019-02-12T03:10:19.834Z,8.80
2019-02-12T03:12:47.287Z,8.80
2019-02-12T03:15:14.683Z,8.80
2019-02-12T03:17:42.118Z,8.80
2019-02-12T03:25:07.763Z,8.80
2019-02-12T03:27:35.296Z,8.80
2019-02-12T03:32:30.224Z,8.80
2019-02-12T03:37:24.986Z,8.80
2019-02-12T03:39:52.398Z,8.70
2019-02-12T03:42:19.775Z,8.70
2019-02-12T03:44:47.195Z,8.70
2019-02-12T03:47:14.607Z,8.70
2019-02-12T03:49:42.028Z,8.70
2019-02-12T03:52:12.884Z,8.70
2019-02-12T03:54:38.883Z,8.70
2019-02-12T03:57:06.305Z,8.70
2019-02-12T03:59:33.680Z,8.70
2019-02-12T04:02:00.947Z,8.70
2019-02-12T04:04:28.263Z,8.70
2019-02-12T04:06:55.560Z,8.70
2019-02-12T04:09:22.867Z,8.70
2019-02-12T04:11:50.290Z,8.70
2019-02-12T04:14:17.693Z,8.70
2019-02-12T04:16:44.999Z,8.70
2019-02-12T04:19:12.354Z,8.80
2019-02-12T04:24:07.002Z,8.70
2019-02-12T04:26:34.437Z,8.80
2019-02-12T04:29:01.839Z,8.80
2019-02-12T04:31:29.551Z,8.80
2019-02-12T04:33:56.813Z,8.80
2019-02-12T04:36:24.066Z,8.70
2019-02-12T04:38:51.303Z,8.70
2019-02-12T04:41:18.598Z,8.80
2019-02-12T04:46:13.288Z,8.70
2019-02-12T04:48:40.622Z,8.50
2019-02-12T04:51:08.066Z,8.70
2019-02-12T04:53:35.277Z,8.70
2019-02-12T04:58:30.082Z,8.70
2019-02-12T05:00:59.328Z,8.70
2019-02-12T05:03:26.658Z,8.60
2019-02-12T05:08:21.394Z,8.60
2019-02-12T05:11:00.332Z,8.60
2019-02-12T05:13:27.678Z,8.40
2019-02-12T05:15:55.027Z,8.60
2019-02-12T05:23:16.970Z,8.60
2019-02-12T05:30:39.227Z,8.60
2019-02-12T05:33:06.596Z,8.60
2019-02-12T05:35:34.070Z,8.50
2019-02-12T05:38:01.385Z,8.60
2019-02-12T05:40:29.100Z,8.60
2019-02-12T05:42:56.553Z,8.60
2019-02-12T05:47:51.185Z,8.60
2019-02-12T05:50:18.499Z,8.60
2019-02-12T05:52:53.885Z,8.60
2019-02-12T05:55:15.083Z,8.50
2019-02-12T06:00:13.673Z,8.60
2019-02-12T06:07:37.232Z,8.50
2019-02-12T06:12:32.497Z,8.50
2019-02-12T06:14:59.826Z,8.40
2019-02-12T06:17:27.312Z,8.40
2019-02-12T06:19:54.750Z,8.40
2019-02-12T06:22:25.251Z,8.40
2019-02-12T06:24:52.680Z,8.40
2019-02-12T06:27:19.871Z,8.40
2019-02-12T06:34:42.037Z,8.40
2019-02-12T06:37:09.537Z,8.40
2019-02-12T06:39:36.867Z,8.40
2019-02-12T06:49:28.165Z,8.40
2019-02-12T06:51:55.432Z,8.50
2019-02-12T06:54:22.915Z,8.50
2019-02-12T06:56:50.343Z,8.50
2019-02-12T06:59:17.737Z,8.50
2019-02-12T07:01:45.168Z,8.50
2019-02-12T07:04:25.030Z,8.50
2019-02-12T07:07:33.088Z,8.50
2019-02-12T07:10:23.159Z,8.50
2019-02-12T07:13:10.353Z,8.50
2019-02-12T07:15:54.648Z,8.50
2019-02-12T07:18:57.567Z,8.60
2019-02-12T07:25:17.665Z,8.50
2019-02-12T07:27:59.083Z,8.50
2019-02-12T07:31:19.451Z,8.50
2019-02-12T07:34:13.306Z,8.50
2019-02-12T07:37:19.052Z,8.50
2019-02-12T07:40:49.312Z,8.50
2019-02-12T07:43:46.056Z,8.60
2019-02-12T07:52:09.464Z,8.60
2019-02-12T07:58:25.269Z,8.70
2019-02-12T08:07:09.584Z,8.70
2019-02-12T08:10:16.612Z,8.70
2019-02-12T08:13:37.466Z,8.80
2019-02-12T08:16:23.212Z,8.80
2019-02-12T08:19:33.254Z,8.80
2019-02-12T08:25:06.283Z,8.90
2019-02-12T08:28:06.153Z,8.90
2019-02-12T08:30:47.337Z,8.90
2019-02-12T08:33:51.453Z,8.90
2019-02-12T08:36:45.519Z,9.00
2019-02-12T08:39:25.696Z,9.00
2019-02-12T08:42:47.461Z,9.00
2019-02-12T08:51:38.177Z,9.10
2019-02-12T08:54:41.675Z,9.20
2019-02-12T09:00:23.759Z,9.30
2019-02-12T09:03:48.987Z,9.40
2019-02-12T09:06:53.371Z,9.40
2019-02-12T09:09:58.487Z,9.40
2019-02-12T09:12:58.073Z,9.40
2019-02-12T09:18:39.496Z,9.50
2019-02-12T09:21:28.342Z,9.50
2019-02-12T09:27:11.736Z,9.60
2019-02-12T09:30:12.219Z,9.70
2019-02-12T09:33:13.174Z,9.70
2019-02-12T09:36:06.277Z,9.70
2019-02-12T09:41:31.902Z,9.70
2019-02-12T09:45:02.408Z,9.70
2019-02-12T09:50:38.347Z,9.80
2019-02-12T09:59:09.080Z,9.90
2019-02-12T10:01:59.350Z,9.90
2019-02-12T10:07:43.258Z,10.00
2019-02-12T10:10:23.183Z,9.90
2019-02-12T10:13:14.069Z,9.90
2019-02-12T10:16:32.088Z,9.90
2019-02-12T10:19:08.106Z,9.90
2019-02-12T10:22:13.157Z,10.00
2019-02-12T10:25:16.752Z,10.00
2019-02-12T10:28:19.107Z,10.00
2019-02-12T10:30:59.962Z,10.00
2019-02-12T10:33:27.272Z,10.10
2019-02-12T10:38:21.927Z,10.20
2019-02-12T10:40:49.383Z,10.30
2019-02-12T10:43:16.668Z,10.30
2019-02-12T10:45:44.142Z,10.40
2019-02-12T10:48:11.479Z,10.40
2019-02-12T10:50:38.856Z,10.40
2019-02-12T10:53:06.163Z,10.40
2019-02-12T10:55:33.594Z,10.40
2019-02-12T10:58:01.076Z,10.40
2019-02-12T11:00:28.860Z,10.40
2019-02-12T11:02:56.262Z,11.00
2019-02-12T11:07:51.015Z,10.40
2019-02-12T11:10:18.414Z,10.40
2019-02-12T11:12:45.836Z,10.40
2019-02-12T11:15:13.248Z,10.40
2019-02-12T11:17:40.559Z,10.50
2019-02-12T11:22:35.439Z,10.50
2019-02-12T11:25:03.409Z,10.60
2019-02-12T11:27:30.726Z,10.60
2019-02-12T11:29:58.114Z,10.60
2019-02-12T11:32:25.873Z,10.60
2019-02-12T11:34:53.288Z,10.60
2019-02-12T11:37:20.580Z,10.70
2019-02-12T11:39:48.010Z,10.70
2019-02-12T11:42:15.471Z,10.70
2019-02-12T11:44:42.967Z,10.80
2019-02-12T11:47:10.339Z,10.80
2019-02-12T11:49:37.801Z,10.80
2019-02-12T11:54:32.540Z,10.90
2019-02-12T11:57:00.125Z,11.00
2019-02-12T11:59:28.939Z,11.10
2019-02-12T12:01:56.384Z,11.20
2019-02-12T12:04:23.710Z,11.20
2019-02-12T12:06:51.007Z,11.20
2019-02-12T12:09:18.363Z,11.30
2019-02-12T12:11:45.663Z,11.40
2019-02-12T12:14:12.995Z,11.40
2019-02-12T12:16:40.418Z,11.50
2019-02-12T12:19:07.939Z,11.50
2019-02-12T12:21:35.252Z,11.50
2019-02-12T12:24:02.675Z,11.50
2019-02-12T12:26:32.641Z,11.40
2019-02-12T12:29:00.079Z,12.40
2019-02-12T12:31:27.522Z,11.40
2019-02-12T12:33:54.917Z,11.30
2019-02-12T12:36:22.249Z,11.30
2019-02-12T12:38:49.657Z,12.30
2019-02-12T12:41:16.965Z,11.30
2019-02-12T12:43:44.262Z,11.10
2019-02-12T12:46:11.722Z,11.10
2019-02-12T12:48:40.070Z,11.10
2019-02-12T12:51:07.767Z,10.90
2019-02-12T12:53:35.180Z,10.90
2019-02-12T12:56:02.599Z,10.80
2019-02-12T12:58:30.064Z,10.80
2019-02-12T13:00:57.367Z,10.80
2019-02-12T13:05:51.970Z,10.70
2019-02-12T13:08:19.330Z,10.70
2019-02-12T13:10:46.870Z,11.70
2019-02-12T13:13:14.316Z,10.60
2019-02-12T13:15:41.714Z,10.60
2019-02-12T13:18:09.071Z,8.90
2019-02-12T13:20:36.444Z,10.40
2019-02-12T13:23:03.772Z,12.10
2019-02-12T13:25:31.122Z,10.80
2019-02-12T13:27:58.606Z,10.40
2019-02-12T13:30:26.058Z,10.40
2019-02-12T13:32:53.417Z,10.40
2019-02-12T13:35:20.813Z,10.40
2019-02-12T13:37:48.231Z,10.50
2019-02-12T13:40:15.686Z,10.50
2019-02-12T13:42:43.072Z,10.40
2019-02-12T13:45:12.167Z,10.60
2019-02-12T13:47:39.590Z,14.40
2019-02-12T13:50:07.650Z,10.60
2019-02-12T13:52:35.838Z,10.70
2019-02-12T13:55:03.760Z,10.80
2019-02-12T13:57:31.098Z,11.00
2019-02-12T13:59:58.539Z,11.10
2019-02-12T14:02:26.016Z,11.10
2019-02-12T14:04:53.420Z,11.10
2019-02-12T14:07:20.805Z,11.20
2019-02-12T14:09:48.128Z,11.20
2019-02-12T14:12:15.815Z,11.20
2019-02-12T14:14:43.304Z,11.20
2019-02-12T14:17:10.714Z,11.20
2019-02-12T14:19:39.173Z,12.60
2019-02-12T14:22:06.585Z,11.20
2019-02-12T14:24:33.918Z,11.20
2019-02-12T14:27:01.322Z,11.20
2019-02-12T14:29:28.725Z,11.20
2019-02-12T14:31:56.178Z,11.30
2019-02-12T14:34:23.582Z,11.60
2019-02-12T14:36:51.052Z,11.30
2019-02-12T14:39:18.460Z,11.30
2019-02-12T14:41:45.854Z,11.30
2019-02-12T14:44:13.173Z,11.60
2019-02-12T14:46:40.623Z,11.40
2019-02-12T14:49:08.152Z,11.40
2019-02-12T14:51:35.561Z,11.40
2019-02-12T14:54:02.905Z,11.40
2019-02-12T14:56:30.310Z,11.30
2019-02-12T14:58:57.585Z,11.30
2019-02-12T15:01:25.027Z,11.70
2019-02-12T15:03:52.408Z,11.20
2019-02-12T15:06:19.851Z,11.20
2019-02-12T15:08:47.212Z,11.60
2019-02-12T15:11:16.988Z,11.10
2019-02-12T15:13:45.846Z,11.10
2019-02-12T15:16:13.983Z,11.10
2019-02-12T15:18:41.452Z,11.00
2019-02-12T15:21:14.432Z,11.00
2019-02-12T15:23:48.032Z,11.00
2019-02-12T15:26:17.272Z,11.10
2019-02-12T15:28:44.737Z,11.00
2019-02-12T15:31:12.219Z,10.90
2019-02-12T15:33:39.787Z,10.90
2019-02-12T15:36:07.091Z,10.90
2019-02-12T15:38:34.691Z,10.80
2019-02-12T15:43:29.323Z,10.80
2019-02-12T15:45:56.729Z,10.80
2019-02-12T15:48:24.363Z,10.80
2019-02-12T15:50:51.976Z,10.80
2019-02-12T15:53:19.391Z,10.80
2019-02-12T15:55:51.314Z,12.30
2019-02-12T15:58:15.941Z,10.80
2019-02-12T16:00:43.440Z,10.80
2019-02-12T16:03:10.965Z,10.20
2019-02-12T16:05:38.458Z,12.40
2019-02-12T16:08:07.266Z,10.80
2019-02-12T16:10:35.359Z,10.70
2019-02-12T16:13:02.879Z,8.10
2019-02-12T16:15:30.307Z,10.70
2019-02-12T16:17:58.398Z,10.60
2019-02-12T16:20:26.893Z,10.60
2019-02-12T16:22:54.212Z,10.60
2019-02-12T16:25:21.573Z,10.70
2019-02-12T16:27:48.942Z,12.40
2019-02-12T16:30:16.433Z,8.50
2019-02-12T16:32:43.756Z,10.50
2019-02-12T16:35:14.014Z,11.50
2019-02-12T16:37:41.371Z,10.50
2019-02-12T16:40:09.708Z,10.40
2019-02-12T16:42:36.931Z,10.40
2019-02-12T16:45:06.448Z,10.40
2019-02-12T16:47:33.810Z,10.40
2019-02-12T16:50:03.831Z,10.40
2019-02-12T16:52:31.227Z,10.30
2019-02-12T16:54:58.464Z,10.30
2019-02-12T16:57:25.874Z,10.30
2019-02-12T16:59:53.395Z,10.30
2019-02-12T17:02:20.708Z,10.20
2019-02-12T17:04:48.099Z,10.20
2019-02-12T17:07:15.622Z,10.20
2019-02-12T17:09:43.119Z,10.20
2019-02-12T17:12:10.526Z,10.20
2019-02-12T17:14:37.830Z,10.20
2019-02-12T17:17:05.300Z,11.20
2019-02-12T17:19:32.576Z,10.10
2019-02-12T17:21:59.944Z,10.30
2019-02-12T17:24:27.186Z,10.10
2019-02-12T17:26:54.608Z,10.10
2019-02-12T17:29:21.945Z,10.10
2019-02-12T17:31:49.384Z,10.10
2019-02-12T17:34:16.855Z,10.10
2019-02-12T17:36:44.232Z,10.00
2019-02-12T17:39:11.640Z,10.00
2019-02-12T17:41:39.018Z,10.60
2019-02-12T17:44:06.460Z,11.40
2019-02-12T17:46:33.910Z,11.40
2019-02-12T17:49:01.236Z,9.90
2019-02-12T17:51:28.707Z,10.70
2019-02-12T17:53:56.176Z,9.90
2019-02-12T17:56:25.169Z,8.40
2019-02-12T17:58:52.706Z,9.80
2019-02-12T18:01:20.110Z,9.80
2019-02-12T18:03:47.874Z,9.80
2019-02-12T18:06:15.272Z,11.90
2019-02-12T18:08:42.738Z,9.70
2019-02-12T18:11:10.096Z,8.00
2019-02-12T18:13:37.786Z,9.70
2019-02-12T18:16:05.220Z,9.60
2019-02-12T18:18:33.125Z,11.20
2019-02-12T18:21:01.340Z,9.60
2019-02-12T18:23:28.834Z,12.50
2019-02-12T18:25:56.147Z,9.60
2019-02-12T18:28:23.604Z,9.90
2019-02-12T18:30:51.821Z,9.60
2019-02-12T18:33:19.339Z,9.60
2019-02-12T18:35:46.739Z,10.90
2019-02-12T18:38:14.187Z,9.60
2019-02-12T18:40:56.356Z,9.60
2019-02-12T18:43:25.542Z,9.60
2019-02-12T18:45:58.518Z,9.60
2019-02-12T18:48:26.033Z,7.40
2019-02-12T18:50:53.795Z,10.70
2019-02-12T18:53:21.171Z,9.60
2019-02-12T18:55:48.712Z,9.60
2019-02-12T18:58:16.140Z,9.90
2019-02-12T19:00:43.510Z,11.60
2019-02-12T19:03:10.838Z,9.50
2019-02-12T19:05:38.313Z,9.50
2019-02-12T19:08:05.788Z,10.70
2019-02-12T19:10:33.331Z,13.60
2019-02-12T19:13:03.519Z,9.50
2019-02-12T19:15:37.103Z,10.30
2019-02-12T19:18:08.122Z,9.90
2019-02-12T19:20:37.433Z,9.50
2019-02-12T19:23:04.981Z,9.40
2019-02-12T19:25:35.097Z,13.40
2019-02-12T19:28:03.336Z,9.40
2019-02-12T19:30:30.987Z,9.60
2019-02-12T19:33:03.621Z,9.40
2019-02-12T19:35:52.255Z,9.30
2019-02-12T19:38:19.947Z,9.30
2019-02-12T19:40:47.579Z,13.00
2019-02-12T19:46:44.465Z,9.20
2019-02-12T19:49:13.397Z,9.30
2019-02-12T19:52:02.711Z,9.20
2019-02-12T19:54:31.059Z,10.80
2019-02-12T19:57:20.954Z,9.20
2019-02-12T19:59:48.909Z,10.90
2019-02-12T20:02:24.575Z,9.80
2019-02-12T20:04:52.279Z,9.10
2019-02-12T20:07:19.782Z,12.30
2019-02-12T20:09:50.600Z,10.90
2019-02-12T20:12:18.178Z,9.10
2019-02-12T20:14:45.652Z,9.00
2019-02-12T20:17:13.528Z,11.10
2019-02-12T20:19:41.362Z,9.00
2019-02-12T20:22:12.828Z,10.70
2019-02-12T20:24:42.643Z,9.00
2019-02-12T20:27:10.216Z,9.20
2019-02-12T20:29:37.856Z,9.00
2019-02-12T20:32:06.630Z,9.00
2019-02-12T20:34:34.098Z,8.90
2019-02-12T20:37:02.153Z,11.40
2019-02-12T20:39:31.862Z,8.90
2019-02-12T20:41:59.456Z,8.90
2019-02-12T20:44:30.222Z,8.90
2019-02-12T20:46:58.290Z,12.80
2019-02-12T20:49:25.870Z,8.90
2019-02-12T20:51:55.565Z,9.00
2019-02-12T20:54:23.302Z,10.00
2019-02-12T20:56:57.895Z,11.50
2019-02-12T20:59:26.104Z,8.90
2019-02-12T21:01:54.573Z,8.90
2019-02-12T21:04:22.070Z,8.80
2019-02-12T21:06:49.587Z,10.50
2019-02-12T21:09:17.048Z,8.80
2019-02-12T21:11:44.595Z,8.70
2019-02-12T21:14:12.121Z,8.70
2019-02-12T21:16:39.523Z,8.60
2019-02-12T21:19:06.911Z,8.60
2019-02-12T21:21:34.409Z,8.50
2019-02-12T21:24:01.766Z,8.50
2019-02-12T21:26:34.650Z,9.10
2019-02-12T21:29:02.648Z,8.50
2019-02-12T21:31:30.327Z,9.00
2019-02-12T21:33:57.694Z,6.10
2019-02-12T21:36:25.547Z,8.60
2019-02-12T21:38:52.957Z,7.70
2019-02-12T21:41:20.341Z,8.40
2019-02-12T21:43:47.855Z,8.70
2019-02-12T21:46:15.503Z,9.30
2019-02-12T21:48:44.367Z,8.50
2019-02-12T21:51:11.639Z,8.30
2019-02-12T21:53:39.782Z,8.30
2019-02-12T21:56:07.280Z,8.30
2019-02-12T21:58:34.989Z,8.30
2019-02-12T22:01:02.397Z,8.30
2019-02-12T22:03:33.266Z,8.60
2019-02-12T22:06:01.060Z,8.50
2019-02-12T22:08:28.503Z,9.10
2019-02-12T22:10:55.918Z,10.80
2019-02-12T22:13:23.313Z,8.30
2019-02-12T22:15:50.699Z,9.80
2019-02-12T22:18:18.093Z,8.30
2019-02-12T22:20:45.731Z,8.20
2019-02-12T22:23:13.075Z,8.30
2019-02-12T22:25:40.527Z,9.90
2019-02-12T22:28:07.934Z,8.20
2019-02-12T22:30:35.388Z,11.20
2019-02-12T22:33:02.939Z,8.20
2019-02-12T22:35:30.435Z,10.70
2019-02-12T22:37:57.795Z,8.20
2019-02-12T22:40:25.281Z,10.50
2019-02-12T22:42:52.803Z,8.20
2019-02-12T22:45:20.319Z,8.30
2019-02-12T22:47:48.023Z,8.20
2019-02-12T22:50:15.348Z,8.20
2019-02-12T22:52:42.844Z,8.20
2019-02-12T22:55:11.028Z,8.20
2019-02-12T22:57:38.466Z,8.20
2019-02-12T23:00:13.935Z,8.20
2019-02-12T23:02:41.346Z,9.70
2019-02-12T23:05:09.196Z,10.50
2019-02-12T23:07:36.654Z,8.10
2019-02-12T23:10:04.985Z,11.10
2019-02-12T23:12:32.476Z,8.10
2019-02-12T23:14:59.938Z,8.10
2019-02-12T23:17:27.688Z,8.20
2019-02-12T23:19:55.442Z,8.10
2019-02-12T23:22:22.815Z,8.00
2019-02-12T23:24:50.492Z,8.20
2019-02-12T23:27:17.936Z,8.00
2019-02-12T23:29:45.302Z,8.00
2019-02-12T23:32:12.808Z,8.00
2019-02-12T23:34:40.158Z,8.30
2019-02-12T23:37:07.717Z,7.90
2019-02-12T23:39:35.077Z,8.00
2019-02-12T23:42:02.422Z,7.90
2019-02-12T23:44:29.908Z,8.20
2019-02-12T23:46:57.238Z,7.90
2019-02-12T23:49:24.566Z,7.90
2019-02-12T23:51:52.077Z,7.90
2019-02-12T23:54:19.438Z,7.90
2019-02-12T23:56:46.850Z,8.20
2019-02-12T23:59:14.319Z,10.10
